YMA7612 MMVA-MHLM
Flight info
| Callsign | YMA7612 |
|---|---|
| Flight time | 0h 58m |
| Altitude | 31000 |
| Route | OLORI DCT PESGA |
| Aircraft | C25C/M-SDE2E3FGHRWXY/LB1 |
Departure
| Time | 2026-04-21 08:53 |
|---|---|
| Airport | Carlos Rovirosa Pérez International Airport (MMVA) |
Arrival
| Time | 2026-04-21 09:51 |
|---|---|
| Airport | Ramón Villeda Morales International Airport (MHLM) |
| Time | Latitude | Longitude | Altitude | Speed | Heading |
|---|---|---|---|---|---|
| 2026-04-21 07:50 | 17.99408 | -92.81752 | 35 ft | 0 kts | 86° |
| 2026-04-21 08:43 | 17.99407 | -92.81758 | 38 ft | 2 kts | 86° |
| 2026-04-21 08:43 | 17.99406 | -92.81776 | 37 ft | 2 kts | 86° |
| 2026-04-21 08:43 | 17.99402 | -92.81792 | 37 ft | 2 kts | 45° |
| 2026-04-21 08:43 | 17.99392 | -92.81798 | 37 ft | 0 kts | 13° |
| 2026-04-21 08:49 | 17.99404 | -92.81798 | 37 ft | 8 kts | 337° |
| 2026-04-21 08:50 | 17.99400 | -92.81863 | 37 ft | 10 kts | 257° |
| 2026-04-21 08:50 | 17.99400 | -92.81941 | 36 ft | 11 kts | 284° |
| 2026-04-21 08:50 | 17.99453 | -92.81997 | 36 ft | 12 kts | 346° |
| 2026-04-21 08:50 | 17.99510 | -92.82054 | 35 ft | 12 kts | 296° |
| 2026-04-21 08:51 | 17.99551 | -92.82137 | 35 ft | 13 kts | 298° |
| 2026-04-21 08:51 | 17.99577 | -92.82188 | 34 ft | 6 kts | 296° |
| 2026-04-21 08:51 | 17.99633 | -92.82321 | 34 ft | 12 kts | 360° |
| 2026-04-21 08:51 | 17.99653 | -92.82285 | 34 ft | 0 kts | 87° |
| 2026-04-21 08:52 | 17.99659 | -92.82195 | 34 ft | 56 kts | 85° |
| 2026-04-21 08:52 | 17.99717 | -92.81408 | 314 ft | 138 kts | 88° |
| 2026-04-21 08:53 | 17.99742 | -92.80230 | 1280 ft | 178 kts | 88° |
| 2026-04-21 08:53 | 17.99688 | -92.79040 | 3037 ft | 150 kts | 91° |
| 2026-04-21 08:53 | 17.99579 | -92.77909 | 3320 ft | 160 kts | 93° |
| 2026-04-21 08:53 | 17.99495 | -92.76796 | 3764 ft | 152 kts | 87° |
| 2026-04-21 08:54 | 17.99674 | -92.75643 | 3792 ft | 171 kts | 65° |
| 2026-04-21 08:54 | 18.00043 | -92.74373 | 3823 ft | 194 kts | 82° |
| 2026-04-21 08:54 | 18.00115 | -92.72807 | 4268 ft | 231 kts | 86° |
| 2026-04-21 08:54 | 18.00169 | -92.71034 | 5172 ft | 250 kts | 88° |
| 2026-04-21 08:55 | 18.00238 | -92.69201 | 5975 ft | 256 kts | 87° |
| 2026-04-21 08:55 | 18.00325 | -92.67226 | 6012 ft | 272 kts | 87° |
| 2026-04-21 08:55 | 18.00412 | -92.65299 | 6003 ft | 256 kts | 88° |
| 2026-04-21 08:55 | 18.00173 | -92.63519 | 5997 ft | 242 kts | 110° |
| 2026-04-21 08:56 | 17.99606 | -92.61921 | 6279 ft | 217 kts | 107° |
| 2026-04-21 08:56 | 17.99119 | -92.60449 | 6979 ft | 221 kts | 110° |
| 2026-04-21 08:56 | 17.98567 | -92.58852 | 7691 ft | 244 kts | 110° |
| 2026-04-21 08:56 | 17.97959 | -92.57103 | 8427 ft | 265 kts | 109° |
| 2026-04-21 08:57 | 17.97408 | -92.55204 | 9171 ft | 285 kts | 99° |
| 2026-04-21 08:57 | 17.97232 | -92.53070 | 9948 ft | 301 kts | 95° |
| 2026-04-21 08:57 | 17.97038 | -92.50825 | 10659 ft | 315 kts | 96° |
| 2026-04-21 08:57 | 17.96827 | -92.48498 | 11371 ft | 325 kts | 96° |
| 2026-04-21 08:58 | 17.96597 | -92.46093 | 12114 ft | 337 kts | 96° |
| 2026-04-21 08:58 | 17.96369 | -92.43612 | 12862 ft | 345 kts | 96° |
| 2026-04-21 08:58 | 17.96139 | -92.41091 | 13627 ft | 349 kts | 95° |
| 2026-04-21 08:58 | 17.95902 | -92.38547 | 14336 ft | 352 kts | 95° |
| 2026-04-21 08:59 | 17.95666 | -92.35980 | 15027 ft | 354 kts | 95° |
| 2026-04-21 08:59 | 17.95423 | -92.33393 | 15732 ft | 356 kts | 95° |
| 2026-04-21 08:59 | 17.95186 | -92.30800 | 16453 ft | 358 kts | 95° |
| 2026-04-21 08:59 | 17.94941 | -92.28201 | 17182 ft | 358 kts | 94° |
| 2026-04-21 09:00 | 17.94701 | -92.25601 | 17940 ft | 358 kts | 94° |
| 2026-04-21 09:00 | 17.94371 | -92.23016 | 18651 ft | 358 kts | 103° |
| 2026-04-21 09:00 | 17.93359 | -92.20626 | 19310 ft | 359 kts | 116° |
| 2026-04-21 09:00 | 17.92254 | -92.18276 | 19993 ft | 359 kts | 115° |
| 2026-04-21 09:01 | 17.91117 | -92.15951 | 20693 ft | 358 kts | 116° |
| 2026-04-21 09:01 | 17.89984 | -92.13627 | 21407 ft | 357 kts | 116° |
| 2026-04-21 09:01 | 17.88864 | -92.11308 | 22139 ft | 356 kts | 116° |
| 2026-04-21 09:01 | 17.87753 | -92.08990 | 22893 ft | 355 kts | 117° |
| 2026-04-21 09:02 | 17.86638 | -92.06685 | 23652 ft | 353 kts | 117° |
| 2026-04-21 09:02 | 17.85526 | -92.04389 | 24295 ft | 352 kts | 118° |
| 2026-04-21 09:02 | 17.84420 | -92.02100 | 24936 ft | 352 kts | 118° |
| 2026-04-21 09:03 | 17.82089 | -91.97284 | 25062 ft | 390 kts | 118° |
| 2026-04-21 09:03 | 17.80833 | -91.94694 | 25079 ft | 406 kts | 118° |
| 2026-04-21 09:03 | 17.79532 | -91.91999 | 25081 ft | 421 kts | 118° |
| 2026-04-21 09:03 | 17.78186 | -91.89225 | 25079 ft | 433 kts | 118° |
| 2026-04-21 09:04 | 17.76808 | -91.86381 | 25079 ft | 442 kts | 118° |
| 2026-04-21 09:04 | 17.75409 | -91.83496 | 25068 ft | 444 kts | 118° |
| 2026-04-21 09:04 | 17.74028 | -91.80649 | 25079 ft | 444 kts | 118° |
| 2026-04-21 09:04 | 17.72630 | -91.77765 | 25073 ft | 444 kts | 118° |
| 2026-04-21 09:05 | 17.71227 | -91.74882 | 25076 ft | 444 kts | 118° |
| 2026-04-21 09:05 | 17.69828 | -91.71996 | 25076 ft | 444 kts | 118° |
| 2026-04-21 09:05 | 17.68423 | -91.69112 | 25073 ft | 444 kts | 118° |
| 2026-04-21 09:05 | 17.67023 | -91.66227 | 25077 ft | 445 kts | 118° |
| 2026-04-21 09:06 | 17.65610 | -91.63326 | 25071 ft | 448 kts | 118° |
| 2026-04-21 09:06 | 17.64193 | -91.60413 | 25070 ft | 449 kts | 118° |
| 2026-04-21 09:06 | 17.62772 | -91.57494 | 25073 ft | 450 kts | 118° |
| 2026-04-21 09:06 | 17.61346 | -91.54569 | 25072 ft | 450 kts | 118° |
| 2026-04-21 09:07 | 17.59923 | -91.51647 | 25067 ft | 450 kts | 118° |
| 2026-04-21 09:07 | 17.58496 | -91.48724 | 25071 ft | 451 kts | 118° |
| 2026-04-21 09:07 | 17.57069 | -91.45797 | 25067 ft | 451 kts | 118° |
| 2026-04-21 09:07 | 17.55641 | -91.42872 | 25070 ft | 451 kts | 118° |
| 2026-04-21 09:08 | 17.54217 | -91.39953 | 25067 ft | 448 kts | 118° |
| 2026-04-21 09:08 | 17.52801 | -91.37053 | 25071 ft | 447 kts | 118° |
| 2026-04-21 09:08 | 17.51382 | -91.34154 | 25068 ft | 447 kts | 118° |
| 2026-04-21 09:08 | 17.49963 | -91.31249 | 25066 ft | 447 kts | 118° |
| 2026-04-21 09:09 | 17.48544 | -91.28352 | 25074 ft | 448 kts | 118° |
| 2026-04-21 09:09 | 17.47125 | -91.25447 | 25069 ft | 448 kts | 118° |
| 2026-04-21 09:09 | 17.45702 | -91.22545 | 25069 ft | 448 kts | 118° |
| 2026-04-21 09:09 | 17.44284 | -91.19646 | 25071 ft | 447 kts | 118° |
| 2026-04-21 09:10 | 17.42862 | -91.16748 | 25066 ft | 447 kts | 118° |
| 2026-04-21 09:10 | 17.41442 | -91.13849 | 25061 ft | 447 kts | 118° |
| 2026-04-21 09:10 | 17.40020 | -91.10954 | 25069 ft | 447 kts | 118° |
| 2026-04-21 09:10 | 17.38602 | -91.08062 | 25071 ft | 447 kts | 118° |
| 2026-04-21 09:11 | 17.37181 | -91.05167 | 25071 ft | 447 kts | 118° |
| 2026-04-21 09:11 | 17.35760 | -91.02276 | 25070 ft | 447 kts | 118° |
| 2026-04-21 09:11 | 17.34342 | -90.99385 | 25071 ft | 447 kts | 118° |
| 2026-04-21 09:11 | 17.32938 | -90.96534 | 25068 ft | 446 kts | 118° |
| 2026-04-21 09:12 | 17.31521 | -90.93649 | 25070 ft | 446 kts | 118° |
| 2026-04-21 09:12 | 17.30101 | -90.90768 | 25062 ft | 446 kts | 118° |
| 2026-04-21 09:12 | 17.28684 | -90.87883 | 25072 ft | 445 kts | 118° |
| 2026-04-21 09:12 | 17.27265 | -90.85007 | 25065 ft | 445 kts | 118° |
| 2026-04-21 09:13 | 17.25847 | -90.82126 | 25063 ft | 445 kts | 118° |
| 2026-04-21 09:13 | 17.24428 | -90.79249 | 25065 ft | 445 kts | 118° |
| 2026-04-21 09:13 | 17.23010 | -90.76372 | 25069 ft | 445 kts | 118° |
| 2026-04-21 09:13 | 17.21593 | -90.73499 | 25063 ft | 445 kts | 118° |
| 2026-04-21 09:14 | 17.20175 | -90.70629 | 25069 ft | 444 kts | 118° |
| 2026-04-21 09:14 | 17.18757 | -90.67753 | 25068 ft | 445 kts | 118° |
| 2026-04-21 09:14 | 17.17337 | -90.64882 | 25075 ft | 444 kts | 118° |
| 2026-04-21 09:14 | 17.15920 | -90.62011 | 25061 ft | 444 kts | 118° |
| 2026-04-21 09:15 | 17.14501 | -90.59145 | 25070 ft | 444 kts | 118° |
| 2026-04-21 09:15 | 17.13084 | -90.56276 | 25070 ft | 444 kts | 118° |
| 2026-04-21 09:15 | 17.11667 | -90.53413 | 25065 ft | 444 kts | 118° |
| 2026-04-21 09:15 | 17.10247 | -90.50547 | 25068 ft | 443 kts | 118° |
| 2026-04-21 09:16 | 17.08832 | -90.47688 | 25072 ft | 443 kts | 118° |
| 2026-04-21 09:16 | 17.07413 | -90.44828 | 25071 ft | 443 kts | 118° |
| 2026-04-21 09:16 | 17.05998 | -90.41970 | 25070 ft | 443 kts | 118° |
| 2026-04-21 09:16 | 17.04578 | -90.39111 | 25072 ft | 443 kts | 118° |
| 2026-04-21 09:17 | 17.03164 | -90.36254 | 25069 ft | 443 kts | 118° |
| 2026-04-21 09:17 | 17.01745 | -90.33402 | 25071 ft | 443 kts | 118° |
| 2026-04-21 09:17 | 17.00329 | -90.30545 | 25073 ft | 443 kts | 118° |
| 2026-04-21 09:17 | 16.98927 | -90.27729 | 25063 ft | 443 kts | 118° |
| 2026-04-21 09:18 | 16.97512 | -90.24876 | 25070 ft | 442 kts | 118° |
| 2026-04-21 09:18 | 16.96094 | -90.22026 | 25076 ft | 442 kts | 118° |
| 2026-04-21 09:18 | 16.94657 | -90.19141 | 25080 ft | 442 kts | 118° |
| 2026-04-21 09:18 | 16.93259 | -90.16329 | 25093 ft | 442 kts | 118° |
| 2026-04-21 09:19 | 16.91842 | -90.13480 | 25096 ft | 442 kts | 118° |
| 2026-04-21 09:19 | 16.90404 | -90.10597 | 25091 ft | 442 kts | 118° |
| 2026-04-21 09:19 | 16.89008 | -90.07794 | 25104 ft | 442 kts | 118° |
| 2026-04-21 09:19 | 16.87590 | -90.04950 | 25107 ft | 442 kts | 118° |
| 2026-04-21 09:20 | 16.86172 | -90.02105 | 25102 ft | 442 kts | 118° |
| 2026-04-21 09:20 | 16.84753 | -89.99261 | 25110 ft | 441 kts | 118° |
| 2026-04-21 09:20 | 16.83334 | -89.96420 | 25110 ft | 441 kts | 118° |
| 2026-04-21 09:20 | 16.81918 | -89.93581 | 25114 ft | 441 kts | 118° |
| 2026-04-21 09:21 | 16.80496 | -89.90739 | 25108 ft | 441 kts | 118° |
| 2026-04-21 09:21 | 16.79078 | -89.87900 | 25112 ft | 441 kts | 118° |
| 2026-04-21 09:21 | 16.77659 | -89.85059 | 25108 ft | 441 kts | 118° |
| 2026-04-21 09:21 | 16.76240 | -89.82223 | 25110 ft | 441 kts | 118° |
| 2026-04-21 09:22 | 16.74817 | -89.79384 | 25098 ft | 441 kts | 118° |
| 2026-04-21 09:22 | 16.73860 | -89.77468 | 25103 ft | 441 kts | 118° |
| 2026-04-21 09:22 | 16.72440 | -89.74632 | 25103 ft | 441 kts | 118° |
| 2026-04-21 09:22 | 16.71039 | -89.71836 | 25097 ft | 441 kts | 118° |
| 2026-04-21 09:23 | 16.69138 | -89.68046 | 25088 ft | 441 kts | 118° |
| 2026-04-21 09:23 | 16.67722 | -89.65217 | 25085 ft | 441 kts | 118° |
| 2026-04-21 09:23 | 16.66778 | -89.63341 | 25074 ft | 441 kts | 118° |
| 2026-04-21 09:23 | 16.65341 | -89.60470 | 25074 ft | 441 kts | 118° |
| 2026-04-21 09:24 | 16.63916 | -89.57641 | 25073 ft | 441 kts | 118° |
| 2026-04-21 09:24 | 16.62209 | -89.55056 | 25057 ft | 440 kts | 133° |
| 2026-04-21 09:24 | 16.60103 | -89.52745 | 25052 ft | 440 kts | 134° |
| 2026-04-21 09:24 | 16.57997 | -89.50432 | 25054 ft | 440 kts | 134° |
| 2026-04-21 09:25 | 16.55887 | -89.48123 | 25060 ft | 440 kts | 134° |
| 2026-04-21 09:25 | 16.53779 | -89.45809 | 25058 ft | 440 kts | 134° |
| 2026-04-21 09:25 | 16.51675 | -89.43490 | 25059 ft | 440 kts | 134° |
| 2026-04-21 09:25 | 16.49567 | -89.41174 | 25055 ft | 440 kts | 134° |
| 2026-04-21 09:26 | 16.47457 | -89.38860 | 25059 ft | 440 kts | 134° |
| 2026-04-21 09:26 | 16.45349 | -89.36545 | 25056 ft | 440 kts | 134° |
| 2026-04-21 09:26 | 16.43242 | -89.34236 | 25051 ft | 440 kts | 134° |
| 2026-04-21 09:26 | 16.41137 | -89.31922 | 25053 ft | 440 kts | 134° |
| 2026-04-21 09:27 | 16.39031 | -89.29616 | 25056 ft | 440 kts | 134° |
| 2026-04-21 09:27 | 16.36924 | -89.27306 | 25053 ft | 440 kts | 134° |
| 2026-04-21 09:27 | 16.34819 | -89.24997 | 25052 ft | 440 kts | 133° |
| 2026-04-21 09:27 | 16.33040 | -89.22422 | 25039 ft | 440 kts | 116° |
| 2026-04-21 09:28 | 16.32063 | -89.19415 | 25040 ft | 440 kts | 102° |
| 2026-04-21 09:28 | 16.31506 | -89.16281 | 25041 ft | 440 kts | 100° |
| 2026-04-21 09:28 | 16.31006 | -89.13134 | 25037 ft | 440 kts | 99° |
| 2026-04-21 09:28 | 16.30498 | -89.09992 | 25042 ft | 440 kts | 100° |
| 2026-04-21 09:29 | 16.29951 | -89.06857 | 25037 ft | 440 kts | 101° |
| 2026-04-21 09:29 | 16.29403 | -89.03723 | 25037 ft | 440 kts | 100° |
| 2026-04-21 09:29 | 16.28871 | -89.00583 | 25025 ft | 441 kts | 100° |
| 2026-04-21 09:29 | 16.28346 | -88.97452 | 24624 ft | 430 kts | 100° |
| 2026-04-21 09:30 | 16.27838 | -88.94485 | 24223 ft | 418 kts | 100° |
| 2026-04-21 09:30 | 16.27329 | -88.91527 | 23827 ft | 413 kts | 100° |
| 2026-04-21 09:30 | 16.26831 | -88.88598 | 23399 ft | 409 kts | 100° |
| 2026-04-21 09:30 | 16.26333 | -88.85695 | 22927 ft | 406 kts | 100° |
| 2026-04-21 09:31 | 16.25840 | -88.82813 | 22465 ft | 403 kts | 100° |
| 2026-04-21 09:31 | 16.25347 | -88.79949 | 22013 ft | 401 kts | 99° |
| 2026-04-21 09:31 | 16.24861 | -88.77104 | 21567 ft | 398 kts | 99° |
| 2026-04-21 09:31 | 16.24374 | -88.74279 | 21153 ft | 396 kts | 99° |
| 2026-04-21 09:32 | 16.23893 | -88.71469 | 20745 ft | 393 kts | 99° |
| 2026-04-21 09:32 | 16.23412 | -88.68680 | 20337 ft | 391 kts | 99° |
| 2026-04-21 09:32 | 16.22934 | -88.65901 | 19942 ft | 389 kts | 99° |
| 2026-04-21 09:32 | 16.22459 | -88.63143 | 19551 ft | 387 kts | 99° |
| 2026-04-21 09:33 | 16.21984 | -88.60392 | 19166 ft | 385 kts | 99° |
| 2026-04-21 09:33 | 16.21513 | -88.57654 | 18785 ft | 383 kts | 99° |
| 2026-04-21 09:33 | 16.21041 | -88.54930 | 18405 ft | 382 kts | 99° |
| 2026-04-21 09:33 | 16.20574 | -88.52218 | 17987 ft | 380 kts | 99° |
| 2026-04-21 09:34 | 16.20106 | -88.49514 | 17556 ft | 379 kts | 99° |
| 2026-04-21 09:34 | 16.19641 | -88.46821 | 17131 ft | 378 kts | 100° |
| 2026-04-21 09:34 | 16.19174 | -88.44138 | 16714 ft | 376 kts | 100° |
| 2026-04-21 09:34 | 16.18712 | -88.41465 | 16297 ft | 375 kts | 100° |
| 2026-04-21 09:35 | 16.18249 | -88.38799 | 15896 ft | 374 kts | 100° |
| 2026-04-21 09:35 | 16.17788 | -88.36142 | 15495 ft | 373 kts | 101° |
| 2026-04-21 09:35 | 16.17331 | -88.33506 | 15125 ft | 365 kts | 101° |
| 2026-04-21 09:35 | 16.16888 | -88.30967 | 14755 ft | 349 kts | 101° |
| 2026-04-21 09:36 | 16.16467 | -88.28533 | 14379 ft | 335 kts | 101° |
| 2026-04-21 09:36 | 16.16057 | -88.26196 | 14021 ft | 323 kts | 101° |
| 2026-04-21 09:36 | 16.15664 | -88.23926 | 13639 ft | 315 kts | 101° |
| 2026-04-21 09:36 | 16.15275 | -88.21711 | 13225 ft | 308 kts | 101° |
| 2026-04-21 09:37 | 16.14898 | -88.19535 | 12818 ft | 303 kts | 101° |
| 2026-04-21 09:37 | 16.14523 | -88.17392 | 12418 ft | 299 kts | 100° |
| 2026-04-21 09:37 | 16.14153 | -88.15276 | 12021 ft | 296 kts | 100° |
| 2026-04-21 09:37 | 16.13787 | -88.13176 | 11636 ft | 294 kts | 100° |
| 2026-04-21 09:38 | 16.13421 | -88.11097 | 11250 ft | 292 kts | 100° |
| 2026-04-21 09:38 | 16.13062 | -88.09026 | 10873 ft | 290 kts | 99° |
| 2026-04-21 09:38 | 16.12696 | -88.06963 | 10505 ft | 289 kts | 100° |
| 2026-04-21 09:38 | 16.12011 | -88.05014 | 10122 ft | 291 kts | 123° |
| 2026-04-21 09:39 | 16.10594 | -88.03525 | 9730 ft | 292 kts | 144° |
| 2026-04-21 09:39 | 16.08743 | -88.02643 | 9323 ft | 293 kts | 156° |
| 2026-04-21 09:39 | 16.06874 | -88.01811 | 8925 ft | 292 kts | 156° |
| 2026-04-21 09:39 | 16.04991 | -88.01011 | 8532 ft | 292 kts | 156° |
| 2026-04-21 09:40 | 16.03120 | -88.00195 | 8142 ft | 292 kts | 155° |
| 2026-04-21 09:40 | 16.01264 | -87.99386 | 7894 ft | 287 kts | 155° |
| 2026-04-21 09:40 | 15.99438 | -87.98583 | 7655 ft | 283 kts | 155° |
| 2026-04-21 09:40 | 15.97654 | -87.97807 | 7418 ft | 280 kts | 155° |
| 2026-04-21 09:41 | 15.95862 | -87.97023 | 7182 ft | 279 kts | 155° |
| 2026-04-21 09:41 | 15.94079 | -87.96246 | 6944 ft | 277 kts | 155° |
| 2026-04-21 09:41 | 15.92307 | -87.95474 | 6712 ft | 276 kts | 155° |
| 2026-04-21 09:41 | 15.90539 | -87.94700 | 6471 ft | 275 kts | 155° |
| 2026-04-21 09:42 | 15.88782 | -87.93937 | 6234 ft | 272 kts | 155° |
| 2026-04-21 09:42 | 15.87064 | -87.93143 | 5985 ft | 269 kts | 149° |
| 2026-04-21 09:42 | 15.85458 | -87.92168 | 5741 ft | 266 kts | 149° |
| 2026-04-21 09:42 | 15.83871 | -87.91276 | 5485 ft | 248 kts | 149° |
| 2026-04-21 09:43 | 15.82407 | -87.90432 | 5236 ft | 239 kts | 148° |
| 2026-04-21 09:43 | 15.80966 | -87.89591 | 4986 ft | 236 kts | 148° |
| 2026-04-21 09:43 | 15.79538 | -87.88758 | 4747 ft | 235 kts | 148° |
| 2026-04-21 09:43 | 15.78122 | -87.87937 | 4492 ft | 231 kts | 148° |
| 2026-04-21 09:44 | 15.76732 | -87.87128 | 4249 ft | 226 kts | 148° |
| 2026-04-21 09:44 | 15.75373 | -87.86338 | 4062 ft | 221 kts | 148° |
| 2026-04-21 09:44 | 15.74047 | -87.85571 | 3971 ft | 214 kts | 148° |
| 2026-04-21 09:44 | 15.72739 | -87.84901 | 3941 ft | 208 kts | 161° |
| 2026-04-21 09:45 | 15.71356 | -87.84528 | 3929 ft | 203 kts | 162° |
| 2026-04-21 09:45 | 15.70016 | -87.84136 | 3930 ft | 198 kts | 162° |
| 2026-04-21 09:45 | 15.68703 | -87.83753 | 3931 ft | 194 kts | 162° |
| 2026-04-21 09:45 | 15.67406 | -87.83380 | 3865 ft | 195 kts | 162° |
| 2026-04-21 09:46 | 15.66065 | -87.82991 | 3618 ft | 205 kts | 163° |
| 2026-04-21 09:46 | 15.64664 | -87.82587 | 3354 ft | 213 kts | 163° |
| 2026-04-21 09:46 | 15.63218 | -87.82172 | 3063 ft | 219 kts | 163° |
| 2026-04-21 09:46 | 15.61734 | -87.81742 | 2769 ft | 223 kts | 163° |
| 2026-04-21 09:47 | 15.60227 | -87.81310 | 2472 ft | 226 kts | 163° |
| 2026-04-21 09:47 | 15.58672 | -87.81126 | 2204 ft | 227 kts | 191° |
| 2026-04-21 09:47 | 15.57289 | -87.81817 | 2161 ft | 217 kts | 214° |
| 2026-04-21 09:47 | 15.56132 | -87.82777 | 2152 ft | 209 kts | 221° |
| 2026-04-21 09:48 | 15.55052 | -87.83743 | 2143 ft | 202 kts | 220° |
| 2026-04-21 09:48 | 15.53988 | -87.84680 | 2055 ft | 202 kts | 220° |
| 2026-04-21 09:48 | 15.52898 | -87.85636 | 1802 ft | 209 kts | 220° |
| 2026-04-21 09:48 | 15.51776 | -87.86625 | 1528 ft | 214 kts | 220° |
| 2026-04-21 09:49 | 15.50642 | -87.87619 | 1258 ft | 203 kts | 220° |
| 2026-04-21 09:49 | 15.49693 | -87.88453 | 1021 ft | 160 kts | 219° |
| 2026-04-21 09:49 | 15.48949 | -87.89110 | 828 ft | 125 kts | 220° |
| 2026-04-21 09:49 | 15.48296 | -87.89680 | 663 ft | 124 kts | 220° |
| 2026-04-21 09:50 | 15.47647 | -87.90259 | 504 ft | 125 kts | 219° |
| 2026-04-21 09:50 | 15.47420 | -87.90455 | 449 ft | 126 kts | 220° |
| 2026-04-21 09:50 | 15.45742 | -87.91964 | 94 ft | 95 kts | 210° |
| 2026-04-21 09:51 | 15.45364 | -87.92260 | 94 ft | 38 kts | 218° |
| 2026-04-21 09:51 | 15.45217 | -87.92412 | 91 ft | 20 kts | 257° |
| 2026-04-21 09:51 | 15.45281 | -87.92523 | 91 ft | 19 kts | 311° |
| 2026-04-21 09:51 | 15.45370 | -87.92628 | 90 ft | 19 kts | 316° |
| 2026-04-21 09:52 | 15.45474 | -87.92601 | 93 ft | 17 kts | 39° |
| 2026-04-21 09:52 | 15.45542 | -87.92543 | 93 ft | 10 kts | 40° |
| 2026-04-21 09:52 | 15.45600 | -87.92498 | 91 ft | 11 kts | 345° |
| 2026-04-21 09:52 | 15.45642 | -87.92548 | 90 ft | 7 kts | 256° |
| 2026-04-21 09:53 | 15.45608 | -87.92550 | 90 ft | 5 kts | 130° |
| 2026-04-21 09:53 | 15.45596 | -87.92537 | 90 ft | 0 kts | 136° |